Time;durP1;ratioP1;P1;durP2;ratioP2;P2;SDS_P1;SDS_P2;PMS_P1;PMS_P2;Temp;Humidity;BMP_temperature;BMP_pressure;BME280_temperature;BME280_humidity;BME280_pressure;Samples;Min_cycle;Max_cycle;Signal;HPM_P1;HPM_P2
2023/03/24 00:01:55;;;;;;;10.40;6.47;;;;;;;13.82;100.00;99188.00;4929696;29;20467;-56
2023/03/24 00:04:23;;;;;;;17.23;6.83;;;;;;;13.85;100.00;99176.28;4929880;29;20460;-56
2023/03/24 00:06:51;;;;;;;11.80;5.43;;;;;;;13.88;100.00;99173.44;4916831;29;20489;-56
2023/03/24 00:09:17;;;;;;;3.33;2.93;;;;;;;13.79;100.00;99166.81;4928289;29;20607;-56
2023/03/24 00:11:44;;;;;;;6.13;3.33;;;;;;;13.93;100.00;99158.81;4925043;29;20465;-56
2023/03/24 00:14:11;;;;;;;2.03;1.50;;;;;;;13.91;100.00;99159.88;4927939;29;20920;-57
2023/03/24 00:16:41;;;;;;;1.47;1.37;;;;;;;13.84;100.00;99148.72;4924717;28;20968;-56
2023/03/24 00:19:09;;;;;;;1.30;1.20;;;;;;;13.89;100.00;99146.63;4929557;29;20487;-57
2023/03/24 00:21:36;;;;;;;3.27;1.47;;;;;;;13.93;100.00;99145.47;4928262;28;20456;-56
2023/03/24 00:24:06;;;;;;;7.30;1.53;;;;;;;13.87;100.00;99147.66;4929342;29;20465;-56
2023/03/24 00:26:36;;;;;;;0.77;0.63;;;;;;;13.88;100.00;99142.22;4928312;28;20460;-55
2023/03/24 00:29:04;;;;;;;2.40;1.00;;;;;;;13.76;100.00;99142.97;4929724;29;20563;-57
2023/03/24 00:31:30;;;;;;;2.40;1.00;;;;;;;13.81;100.00;99123.97;4929526;29;20460;-56
2023/03/24 00:33:58;;;;;;;1.30;1.00;;;;;;;13.79;100.00;99123.22;4929265;29;20560;-56
2023/03/24 00:36:27;;;;;;;1.17;1.07;;;;;;;13.72;100.00;99119.22;4929043;29;20510;-57
2023/03/24 00:38:55;;;;;;;1.00;0.90;;;;;;;13.76;100.00;99110.06;4929331;29;20534;-56
2023/03/24 00:41:23;;;;;;;1.33;0.87;;;;;;;13.51;100.00;99105.31;4929328;29;20463;-56
2023/03/24 00:43:54;;;;;;;1.63;0.97;;;;;;;13.45;100.00;99106.56;4929358;28;20461;-57
2023/03/24 00:46:26;;;;;;;1.77;1.67;;;;;;;13.47;100.00;99104.66;4928720;29;20952;-56
2023/03/24 00:48:56;;;;;;;1.10;1.00;;;;;;;13.46;100.00;99107.41;4929167;28;20631;-57
2023/03/24 00:51:23;;;;;;;10.50;1.13;;;;;;;13.39;100.00;99100.72;4929626;29;20487;-56
2023/03/24 00:53:56;;;;;;;1.33;1.13;;;;;;;13.24;100.00;99087.31;4929142;29;20456;-56
2023/03/24 00:56:25;;;;;;;3.43;0.87;;;;;;;13.24;100.00;99086.47;4929423;28;20808;-56
2023/03/24 00:58:56;;;;;;;0.80;0.70;;;;;;;12.93;100.00;99082.03;4928811;29;20500;-56
2023/03/24 01:01:28;;;;;;;1.17;1.07;;;;;;;13.07;100.00;99084.75;4928809;29;20543;-56
2023/03/24 01:03:55;;;;;;;0.60;0.60;;;;;;;13.11;100.00;99096.09;4928754;29;20463;-56
2023/03/24 01:06:23;;;;;;;1.03;0.90;;;;;;;13.04;100.00;99092.94;4918715;29;20540;-56
2023/03/24 01:08:52;;;;;;;0.77;0.57;;;;;;;13.10;100.00;99086.38;4926668;28;20476;-56
2023/03/24 01:11:24;;;;;;;2.10;0.90;;;;;;;13.03;100.00;99089.41;4926389;29;20452;-56
2023/03/24 01:13:52;;;;;;;1.40;1.30;;;;;;;13.16;100.00;99088.72;4927582;29;20839;-56
2023/03/24 01:16:19;;;;;;;1.23;1.13;;;;;;;13.13;100.00;99080.84;4922249;29;20467;-56
2023/03/24 01:18:46;;;;;;;1.17;1.07;;;;;;;12.97;100.00;99080.88;4928671;29;20500;-56
2023/03/24 01:21:12;;;;;;;3.60;1.13;;;;;;;13.03;100.00;99068.06;4929432;29;20460;-56
2023/03/24 01:23:40;;;;;;;1.60;0.87;;;;;;;13.15;100.00;99078.94;4927686;28;20919;-56
2023/03/24 01:26:09;;;;;;;1.80;1.70;;;;;;;13.25;100.00;99082.84;4928754;29;20456;-56
2023/03/24 01:28:39;;;;;;;1.43;1.33;;;;;;;13.23;100.00;99066.06;4928455;29;20929;-56
2023/03/24 01:31:08;;;;;;;3.00;2.47;;;;;;;13.34;100.00;99076.97;4928596;29;20457;-56
2023/03/24 01:33:36;;;;;;;1.40;1.30;;;;;;;13.25;100.00;99062.34;4931055;28;20491;-56
2023/03/24 01:36:05;;;;;;;1.90;1.00;;;;;;;13.33;100.00;99065.44;4931784;29;20842;-56
2023/03/24 01:38:31;;;;;;;6.93;0.97;;;;;;;13.36;100.00;99066.19;4931758;29;21013;-57
2023/03/24 01:40:58;;;;;;;1.40;1.30;;;;;;;13.40;100.00;99071.25;4931741;29;20463;-56
2023/03/24 01:43:29;;;;;;;1.43;1.33;;;;;;;13.39;100.00;99066.00;4931775;29;21031;-56
2023/03/24 01:46:20;;;;;;;1.80;1.70;;;;;;;13.57;100.00;99057.78;4930836;29;20526;-56
2023/03/24 01:48:54;;;;;;;1.70;0.97;;;;;;;13.36;100.00;99045.72;4931706;29;20468;-56
2023/03/24 01:51:34;;;;;;;1.13;1.03;;;;;;;13.19;100.00;99043.19;4931554;29;20502;-56
2023/03/24 01:54:08;;;;;;;0.70;0.60;;;;;;;13.31;100.00;99029.97;4931740;29;20452;-56
2023/03/24 01:56:38;;;;;;;0.87;0.87;;;;;;;13.35;100.00;99038.66;4932167;29;20885;-56
2023/03/24 01:59:09;;;;;;;2.20;1.07;;;;;;;13.30;100.00;99033.59;4931307;29;21039;-56
2023/03/24 02:01:36;;;;;;;0.67;0.53;;;;;;;13.32;100.00;99023.69;4931614;29;20444;-57
2023/03/24 02:04:05;;;;;;;1.90;1.77;;;;;;;13.31;100.00;99016.63;4931246;28;20460;-56
2023/03/24 02:06:35;;;;;;;4.73;1.23;;;;;;;12.99;100.00;99001.63;4920285;29;20453;-57
2023/03/24 02:09:02;;;;;;;1.17;1.07;;;;;;;13.08;100.00;98990.44;4930631;28;20859;-56
2023/03/24 02:11:31;;;;;;;0.73;0.60;;;;;;;13.02;100.00;98980.13;4927541;28;20969;-56
2023/03/24 02:13:58;;;;;;;1.20;1.10;;;;;;;12.89;100.00;98969.34;4906278;29;20885;-56
2023/03/24 02:16:55;;;;;;;1.93;1.50;;;;;;;13.03;100.00;98957.84;4930857;29;20949;-56
2023/03/24 02:19:25;;;;;;;1.07;1.03;;;;;;;13.17;100.00;98949.00;4931409;28;20472;-56
2023/03/24 02:22:19;;;;;;;0.67;0.60;;;;;;;13.21;100.00;98948.75;4931380;28;20460;-56
2023/03/24 02:25:17;;;;;;;1.70;1.60;;;;;;;13.21;100.00;98953.22;4931042;29;20459;-56
2023/03/24 02:28:15;;;;;;;0.80;0.70;;;;;;;13.17;100.00;98971.22;4931168;28;20456;-56
2023/03/24 02:31:05;;;;;;;1.70;1.17;;;;;;;13.19;100.00;98973.81;4931381;29;20482;-56
2023/03/24 02:34:05;;;;;;;3.90;1.40;;;;;;;13.17;100.00;98992.56;4909304;29;20808;-56
2023/03/24 02:37:17;;;;;;;1.33;1.30;;;;;;;13.01;100.00;98989.06;4931024;28;20948;-56
2023/03/24 02:39:59;;;;;;;2.27;1.00;;;;;;;12.84;100.00;98979.41;4930991;28;20522;-56
2023/03/24 02:43:20;;;;;;;5.73;0.83;;;;;;;12.70;100.00;98977.53;4931066;29;20460;-56
2023/03/24 02:46:14;;;;;;;1.47;1.37;;;;;;;12.70;100.00;98977.53;4978682;28;21200;-56
2023/03/24 02:48:48;;;;;;;1.80;1.70;;;;;;;12.65;100.00;98968.09;4932253;28;20849;-57
2023/03/24 02:51:40;;;;;;;1.17;1.07;;;;;;;12.73;100.00;98961.34;4906845;28;20464;-56
2023/03/24 02:54:16;;;;;;;2.20;2.00;;;;;;;12.76;100.00;98960.34;4940116;28;20478;-56
2023/03/24 02:56:45;;;;;;;5.00;1.73;;;;;;;12.79;100.00;98964.63;4930823;28;20933;-56
2023/03/24 02:59:30;;;;;;;7.83;1.63;;;;;;;12.66;100.00;98956.50;4930586;28;20504;-56
2023/03/24 03:02:05;;;;;;;4.07;1.27;;;;;;;12.63;100.00;98948.69;4930578;28;20451;-57
2023/03/24 03:04:38;;;;;;;2.17;1.90;;;;;;;12.48;100.00;98944.25;4931107;29;20912;-56
2023/03/24 03:07:09;;;;;;;1.90;1.20;;;;;;;12.69;100.00;98966.97;4918030;29;20452;-56
2023/03/24 03:09:40;;;;;;;1.10;1.03;;;;;;;12.64;100.00;98958.38;4930569;29;20487;-56
2023/03/24 03:12:11;;;;;;;3.30;2.30;;;;;;;12.64;100.00;98945.91;4926390;29;20464;-56
2023/03/24 03:14:53;;;;;;;1.20;1.10;;;;;;;12.53;100.00;98945.69;4924947;29;20457;-56
2023/03/24 03:17:29;;;;;;;1.87;1.77;;;;;;;12.52;100.00;98948.44;4907492;29;20507;-56
2023/03/24 03:20:04;;;;;;;5.00;2.00;;;;;;;12.64;100.00;98953.91;4930421;29;20476;-56
2023/03/24 03:22:38;;;;;;;2.40;1.70;;;;;;;12.61;100.00;98947.88;4930449;28;20459;-57
2023/03/24 03:25:05;;;;;;;1.83;1.73;;;;;;;12.80;100.00;98953.00;4930240;29;20463;-56
2023/03/24 03:27:37;;;;;;;1.77;1.57;;;;;;;13.05;100.00;98948.78;4930772;28;20456;-56
2023/03/24 03:30:12;;;;;;;6.17;1.50;;;;;;;13.13;100.00;98950.13;4930506;29;20504;-56
2023/03/24 03:32:43;;;;;;;1.80;1.70;;;;;;;13.32;100.00;98954.28;4930114;28;20452;-56
2023/03/24 03:35:17;;;;;;;1.50;1.40;;;;;;;13.36;100.00;98952.28;4930260;28;20479;-56
2023/03/24 03:37:56;;;;;;;2.37;2.00;;;;;;;13.31;100.00;98952.59;4929846;29;20492;-57
2023/03/24 03:40:31;;;;;;;2.23;1.73;;;;;;;13.46;100.00;98945.44;4930532;29;20476;-56
2023/03/24 03:42:57;;;;;;;2.23;1.97;;;;;;;13.47;100.00;98949.81;4930259;29;20506;-56
2023/03/24 03:45:24;;;;;;;1.80;1.70;;;;;;;13.51;100.00;98945.16;4928628;28;20518;-56
2023/03/24 03:47:51;;;;;;;1.77;1.67;;;;;;;13.66;100.00;98944.19;4930264;29;20463;-56
2023/03/24 03:50:17;;;;;;;3.10;1.70;;;;;;;13.68;100.00;98944.94;4929878;29;20488;-56
2023/03/24 03:52:44;;;;;;;1.10;1.00;;;;;;;13.57;100.00;98924.28;4930031;29;20475;-56
2023/03/24 03:55:12;;;;;;;1.33;1.10;;;;;;;13.80;100.00;98938.81;4929639;29;20459;-56
2023/03/24 03:57:39;;;;;;;1.67;1.57;;;;;;;13.87;100.00;98929.47;4929884;29;20814;-56
2023/03/24 04:00:14;;;;;;;8.23;2.60;;;;;;;13.85;100.00;98935.88;4929761;29;20488;-56
2023/03/24 04:02:52;;;;;;;1.73;1.63;;;;;;;13.99;100.00;98935.00;4905328;28;20452;-56
2023/03/24 04:05:31;;;;;;;8.10;2.30;;;;;;;13.93;100.00;98946.91;4927796;28;20518;-56
2023/03/24 04:08:32;;;;;;;2.10;1.43;;;;;;;13.99;100.00;98946.53;4920825;28;20455;-56
2023/03/24 04:11:15;;;;;;;2.90;1.30;;;;;;;13.81;100.00;98950.38;4907615;28;20460;-56
2023/03/24 04:13:43;;;;;;;3.67;2.10;;;;;;;13.84;100.00;98950.16;4924760;28;20460;-56
2023/03/24 04:16:33;;;;;;;5.90;1.43;;;;;;;13.75;100.00;98954.28;4922534;29;20460;-55
2023/03/24 04:19:21;;;;;;;1.90;1.67;;;;;;;13.78;100.00;98967.44;4906258;28;20503;-56
2023/03/24 04:22:22;;;;;;;1.67;1.57;;;;;;;13.97;100.00;98961.78;4929644;28;20456;-56
2023/03/24 04:24:49;;;;;;;2.40;1.97;;;;;;;14.01;100.00;98968.66;4929509;29;20458;-57
2023/03/24 04:27:38;;;;;;;2.40;1.70;;;;;;;14.04;100.00;98972.97;4929569;29;20510;-56
2023/03/24 04:30:36;;;;;;;2.33;2.20;;;;;;;14.04;100.00;98972.97;4929422;29;20474;-56
2023/03/24 04:33:21;;;;;;;2.23;1.80;;;;;;;13.94;100.00;98973.53;4940993;28;20484;-56
2023/03/24 04:35:56;;;;;;;2.03;1.93;;;;;;;13.98;100.00;98978.69;4929477;29;20468;-56
2023/03/24 04:38:26;;;;;;;2.67;2.30;;;;;;;13.84;100.00;98979.53;4905484;28;20509;-55
2023/03/24 04:40:55;;;;;;;2.20;2.10;;;;;;;13.80;100.00;98972.69;4929240;29;20539;-57
2023/03/24 04:43:26;;;;;;;27.17;2.83;;;;;;;13.69;100.00;98960.00;4929698;29;20514;-56
2023/03/24 04:45:56;;;;;;;3.20;2.27;;;;;;;13.71;100.00;98942.09;4929207;28;20460;-57
2023/03/24 04:48:25;;;;;;;2.13;1.67;;;;;;;13.74;100.00;98939.22;4929218;29;20449;-57
2023/03/24 04:50:57;;;;;;;2.23;2.07;;;;;;;13.78;100.00;98938.06;4928994;29;20483;-56
2023/03/24 04:53:24;;;;;;;1.37;1.27;;;;;;;13.67;100.00;98919.19;4929166;29;20470;-56
2023/03/24 04:56:21;;;;;;;3.63;2.07;;;;;;;13.69;100.00;98917.28;4929165;29;20460;-57
2023/03/24 04:58:47;;;;;;;4.23;1.23;;;;;;;13.84;100.00;98910.09;4928838;28;20500;-56
2023/03/24 05:01:15;;;;;;;1.50;1.40;;;;;;;13.83;100.00;98906.56;4929327;29;20456;-56
2023/03/24 05:03:44;;;;;;;1.30;1.07;;;;;;;13.87;100.00;98924.13;4928669;29;20456;-56
2023/03/24 05:06:12;;;;;;;1.13;1.03;;;;;;;13.85;100.00;98926.06;4920156;29;20553;-56
2023/03/24 05:08:40;;;;;;;1.80;1.63;;;;;;;13.73;100.00;98900.13;4927633;28;20463;-56
2023/03/24 05:11:06;;;;;;;0.83;0.70;;;;;;;13.67;100.00;98929.88;4932248;29;20452;-57
2023/03/24 05:13:33;;;;;;;1.03;0.90;;;;;;;13.83;100.00;98933.28;4928003;29;20803;-57
2023/03/24 05:15:59;;;;;;;0.70;0.70;;;;;;;13.89;100.00;98932.91;4925120;28;20456;-57
2023/03/24 05:18:25;;;;;;;1.10;1.03;;;;;;;13.85;100.00;98939.41;4931982;28;20566;-57
2023/03/24 05:20:53;;;;;;;1.30;0.60;;;;;;;13.80;100.00;98927.28;4932267;29;20456;-56
2023/03/24 05:23:19;;;;;;;0.80;0.80;;;;;;;13.88;100.00;98916.97;4932060;29;20881;-57
2023/03/24 05:25:47;;;;;;;0.80;0.77;;;;;;;13.79;100.00;98906.88;4932154;29;20460;-57
2023/03/24 05:28:13;;;;;;;0.70;0.63;;;;;;;13.72;100.00;98906.44;4931786;28;20452;-57
2023/03/24 05:30:40;;;;;;;0.60;0.57;;;;;;;13.72;100.00;98894.88;4931932;28;20993;-57
2023/03/24 05:33:06;;;;;;;0.70;0.67;;;;;;;13.73;100.00;98900.13;4931776;29;20460;-57
2023/03/24 05:35:33;;;;;;;2.23;0.63;;;;;;;13.77;100.00;98908.78;4932149;28;20471;-56
2023/03/24 05:37:59;;;;;;;1.07;0.67;;;;;;;13.83;100.00;98916.41;4931798;28;20494;-56
2023/03/24 05:40:26;;;;;;;0.93;0.93;;;;;;;13.74;100.00;98915.19;4931804;28;20476;-57
2023/03/24 05:42:52;;;;;;;3.53;0.70;;;;;;;13.78;100.00;98918.50;4931632;29;20460;-56
2023/03/24 05:45:19;;;;;;;0.57;0.50;;;;;;;13.75;100.00;98930.25;4931352;29;20460;-57
2023/03/24 05:47:46;;;;;;;0.50;0.43;;;;;;;13.81;100.00;98926.31;4931683;29;20514;-57
2023/03/24 05:50:13;;;;;;;0.60;0.50;;;;;;;13.92;100.00;98932.69;4931932;29;20464;-57
2023/03/24 05:52:40;;;;;;;0.57;0.57;;;;;;;13.91;100.00;98935.47;4930489;28;20483;-57
2023/03/24 05:55:08;;;;;;;0.70;0.60;;;;;;;13.86;100.00;98942.94;4930211;28;20462;-57
2023/03/24 05:57:35;;;;;;;0.73;0.70;;;;;;;13.98;100.00;98944.81;4931746;29;20482;-57
2023/03/24 06:00:10;;;;;;;0.77;0.60;;;;;;;13.94;100.00;98948.63;4931312;29;20500;-57
2023/03/24 06:02:36;;;;;;;0.63;0.43;;;;;;;13.96;100.00;98964.56;4931352;28;20451;-57
2023/03/24 06:05:03;;;;;;;6.23;0.50;;;;;;;13.91;100.00;98970.19;4931451;29;20459;-57
2023/03/24 06:07:31;;;;;;;0.70;0.67;;;;;;;13.91;100.00;98968.38;4906313;29;20456;-57
2023/03/24 06:10:01;;;;;;;0.80;0.70;;;;;;;13.88;100.00;98975.75;4930945;29;20486;-57
2023/03/24 06:12:29;;;;;;;0.50;0.50;;;;;;;14.01;100.00;98987.38;4927081;29;20555;-57
2023/03/24 06:14:56;;;;;;;0.73;0.60;;;;;;;14.02;100.00;98991.75;4924397;29;20511;-57
2023/03/24 06:17:23;;;;;;;1.47;0.60;;;;;;;13.86;100.00;98999.03;4931272;29;20481;-56
2023/03/24 06:19:50;;;;;;;2.13;0.50;;;;;;;14.06;100.00;99005.78;4930866;29;20590;-57
2023/03/24 06:22:17;;;;;;;0.70;0.60;;;;;;;13.92;100.00;99004.84;4931028;29;20471;-57
2023/03/24 06:24:45;;;;;;;0.50;0.40;;;;;;;14.04;100.00;99005.88;4931058;29;20519;-57
2023/03/24 06:27:13;;;;;;;2.83;0.70;;;;;;;14.16;100.00;99004.25;4931457;29;20522;-57
2023/03/24 06:29:41;;;;;;;0.60;0.60;;;;;;;14.09;100.00;99013.59;4931082;29;20577;-57
2023/03/24 06:32:08;;;;;;;2.67;1.00;;;;;;;14.13;100.00;99005.31;4931001;28;20547;-56
2023/03/24 06:34:36;;;;;;;0.60;0.47;;;;;;;14.30;100.00;99001.53;4930823;28;20464;-57
2023/03/24 06:37:04;;;;;;;1.20;0.73;;;;;;;14.17;100.00;99001.47;4931199;29;20452;-57
2023/03/24 06:39:30;;;;;;;1.10;1.00;;;;;;;14.25;100.00;99006.31;4930488;29;20535;-57
2023/03/24 06:41:57;;;;;;;1.30;1.20;;;;;;;14.24;100.00;99007.25;4930796;29;20957;-57
2023/03/24 06:44:23;;;;;;;1.33;1.27;;;;;;;14.45;100.00;99000.56;4930480;28;21007;-57
2023/03/24 06:46:49;;;;;;;2.57;1.20;;;;;;;14.36;100.00;99002.94;4930778;29;20962;-57
2023/03/24 06:49:16;;;;;;;1.73;0.93;;;;;;;14.40;100.00;99005.34;4929114;28;20483;-57
2023/03/24 06:51:42;;;;;;;1.07;1.07;;;;;;;14.35;100.00;98996.75;4930557;29;20460;-57
2023/03/24 06:54:09;;;;;;;0.70;0.60;;;;;;;14.39;100.00;98997.41;4930561;29;20452;-57
2023/03/24 06:56:35;;;;;;;0.90;0.90;;;;;;;14.42;100.00;98999.91;4930579;29;20809;-57
2023/03/24 06:59:02;;;;;;;0.80;0.63;;;;;;;14.46;100.00;98999.63;4930656;28;20503;-57
2023/03/24 07:01:28;;;;;;;2.50;1.23;;;;;;;14.36;100.00;99002.94;4930719;29;20460;-57
2023/03/24 07:03:55;;;;;;;1.13;0.73;;;;;;;14.41;100.00;99004.38;4930245;29;20510;-57
2023/03/24 07:06:22;;;;;;;1.23;1.13;;;;;;;14.55;100.00;99005.34;4920333;29;20568;-57
2023/03/24 07:08:48;;;;;;;0.80;0.70;;;;;;;14.54;100.00;99006.28;4928194;28;20472;-57
2023/03/24 07:11:16;;;;;;;4.60;1.00;;;;;;;14.43;100.00;99002.47;4928558;29;20539;-57
2023/03/24 07:13:42;;;;;;;0.73;0.50;;;;;;;14.69;100.00;99011.50;4928438;29;20457;-57
2023/03/24 07:16:09;;;;;;;1.07;0.70;;;;;;;14.74;100.00;99020.06;4923665;28;20563;-57
2023/03/24 07:18:35;;;;;;;0.73;0.73;;;;;;;14.50;100.00;99010.97;4929934;28;20495;-57
2023/03/24 07:21:02;;;;;;;0.60;0.60;;;;;;;14.45;100.00;99016.63;4930738;29;20452;-57
2023/03/24 07:23:29;;;;;;;1.00;0.60;;;;;;;14.42;100.00;99023.97;4930407;29;20530;-57
2023/03/24 07:25:56;;;;;;;0.80;0.80;;;;;;;14.51;100.00;99021.56;4930430;29;20480;-57
2023/03/24 07:28:23;;;;;;;0.97;0.87;;;;;;;14.61;100.00;99037.88;4930330;28;20492;-57
2023/03/24 07:30:49;;;;;;;1.53;0.53;;;;;;;14.45;100.00;99031.81;4929955;29;20480;-57
2023/03/24 07:33:19;;;;;;;0.63;0.60;;;;;;;14.52;100.00;99041.97;4930097;29;20845;-57
2023/03/24 07:35:46;;;;;;;0.90;0.57;;;;;;;14.58;100.00;99045.25;4930319;29;20467;-57
2023/03/24 07:38:12;;;;;;;1.77;0.80;;;;;;;14.76;100.00;99044.88;4904757;28;20460;-57
2023/03/24 07:40:39;;;;;;;7.53;0.93;;;;;;;14.73;100.00;99057.63;4929973;28;20508;-57
2023/03/24 07:43:05;;;;;;;0.70;0.70;;;;;;;14.75;100.00;99061.03;4904777;29;20467;-57
2023/03/24 07:45:32;;;;;;;7.30;0.90;;;;;;;14.80;100.00;99056.22;4917068;28;20432;-57
2023/03/24 07:48:00;;;;;;;8.83;1.10;;;;;;;14.58;100.00;99055.94;4929510;29;20456;-57
2023/03/24 07:50:28;;;;;;;10.23;2.10;;;;;;;14.72;100.00;99061.25;4929598;29;20472;-57
2023/03/24 07:52:55;;;;;;;1.77;1.67;;;;;;;14.46;100.00;99060.25;4929967;29;20491;-57
2023/03/24 07:55:25;;;;;;;1.60;1.50;;;;;;;14.46;100.00;99054.91;4930055;29;20547;-57
2023/03/24 07:57:52;;;;;;;1.70;1.60;;;;;;;14.50;100.00;99056.41;4930130;29;20951;-57
2023/03/24 08:00:19;;;;;;;1.37;0.80;;;;;;;14.53;100.00;99053.56;4929150;29;20511;-57
2023/03/24 08:02:50;;;;;;;7.83;0.90;;;;;;;14.59;100.00;99041.59;4929771;29;20515;-57
2023/03/24 08:05:21;;;;;;;5.17;2.20;;;;;;;14.81;100.00;99048.13;4927635;29;21063;-57
2023/03/24 08:07:54;;;;;;;1.00;0.80;;;;;;;14.77;100.00;99048.41;4919043;28;20456;-57
2023/03/24 08:10:23;;;;;;;0.90;0.90;;;;;;;14.58;100.00;99053.25;4929096;29;20996;-57
2023/03/24 08:12:50;;;;;;;12.07;1.00;;;;;;;14.40;100.00;99057.97;4924477;29;20959;-57
2023/03/24 08:15:17;;;;;;;0.90;0.80;;;;;;;14.24;100.00;99052.69;4922069;29;20464;-57
2023/03/24 08:17:44;;;;;;;1.33;1.03;;;;;;;14.20;100.00;99065.41;4929378;29;20460;-57
2023/03/24 08:20:13;;;;;;;1.17;1.07;;;;;;;14.23;100.00;99051.00;4929089;29;20532;-57
2023/03/24 08:22:42;;;;;;;2.20;1.00;;;;;;;14.26;100.00;99064.19;4929376;29;20460;-57
2023/03/24 08:25:11;;;;;;;1.00;0.90;;;;;;;14.37;100.00;99055.47;4928942;29;20464;-57
2023/03/24 08:27:39;;;;;;;1.87;1.67;;;;;;;14.42;100.00;99051.56;4929452;29;20463;-57
2023/03/24 08:30:07;;;;;;;0.80;0.80;;;;;;;14.60;100.00;99043.31;4929014;29;20850;-57
2023/03/24 08:32:34;;;;;;;1.23;0.83;;;;;;;14.41;100.00;99057.84;4929224;29;20456;-57
2023/03/24 08:35:03;;;;;;;2.93;1.33;;;;;;;14.51;100.00;99059.00;4929149;29;20483;-57
2023/03/24 08:37:30;;;;;;;0.63;0.63;;;;;;;14.59;100.00;99074.56;4929211;29;20460;-57
2023/03/24 08:39:57;;;;;;;1.00;0.90;;;;;;;14.26;100.00;99074.88;4928660;28;20920;-57
2023/03/24 08:42:24;;;;;;;0.50;0.30;;;;;;;13.74;100.00;99083.44;4927876;29;20456;-56
2023/03/24 08:44:51;;;;;;;0.50;0.47;;;;;;;13.78;100.00;99079.63;4927846;29;20466;-57
2023/03/24 08:47:17;;;;;;;0.57;0.37;;;;;;;13.83;100.00;99087.34;4928974;28;20464;-57
2023/03/24 08:49:44;;;;;;;0.50;0.40;;;;;;;13.75;100.00;99082.50;4928775;29;20487;-56
2023/03/24 08:52:10;;;;;;;0.80;0.33;;;;;;;13.59;100.00;99057.69;4928786;29;20546;-56
2023/03/24 08:54:37;;;;;;;0.30;0.20;;;;;;;13.70;100.00;99067.69;4903634;29;21047;-57
2023/03/24 08:57:03;;;;;;;1.03;0.60;;;;;;;13.81;100.00;99073.22;4928841;29;20463;-56
2023/03/24 08:59:30;;;;;;;0.73;0.40;;;;;;;13.77;100.00;99079.72;4928784;28;20511;-57
2023/03/24 09:01:56;;;;;;;0.40;0.37;;;;;;;13.56;100.00;99071.19;4928794;28;20467;-56
2023/03/24 09:04:23;;;;;;;0.40;0.30;;;;;;;13.62;100.00;99076.19;4928532;28;20466;-57
2023/03/24 09:06:52;;;;;;;0.40;0.20;;;;;;;13.87;100.00;99076.41;4915808;28;20515;-57
2023/03/24 09:09:18;;;;;;;0.40;0.30;;;;;;;13.80;100.00;99077.72;4928608;29;20490;-56
2023/03/24 09:11:45;;;;;;;0.40;0.30;;;;;;;13.68;100.00;99093.63;4923944;28;20469;-57
2023/03/24 09:14:12;;;;;;;0.40;0.30;;;;;;;13.74;100.00;99109.28;4926727;29;20462;-57
2023/03/24 09:16:39;;;;;;;0.33;0.20;;;;;;;13.50;100.00;99103.59;4923392;28;20828;-57
2023/03/24 09:19:06;;;;;;;0.40;0.40;;;;;;;13.53;100.00;99104.28;4928344;29;20487;-56
2023/03/24 09:21:32;;;;;;;0.40;0.30;;;;;;;13.57;100.00;99115.66;4928396;29;20460;-57
2023/03/24 09:23:59;;;;;;;0.40;0.30;;;;;;;13.26;100.00;99111.25;4928778;28;20457;-56
2023/03/24 09:26:26;;;;;;;0.47;0.30;;;;;;;13.38;100.00;99126.53;4927354;29;20456;-56
2023/03/24 09:28:52;;;;;;;0.30;0.20;;;;;;;13.20;100.00;99132.97;4928473;28;20567;-56
2023/03/24 09:31:19;;;;;;;0.40;0.30;;;;;;;13.11;100.00;99142.31;4928655;28;20464;-56
2023/03/24 09:33:46;;;;;;;5.23;0.40;;;;;;;12.93;100.00;99148.72;4928229;29;20510;-57
2023/03/24 09:36:12;;;;;;;0.40;0.40;;;;;;;12.89;100.00;99150.69;4928670;29;20486;-57
2023/03/24 09:38:38;;;;;;;0.40;0.30;;;;;;;12.93;100.00;99151.38;4928294;28;20464;-57
2023/03/24 09:41:15;;;;;;;0.37;0.30;;;;;;;12.80;100.00;99156.53;4928166;28;20871;-57
2023/03/24 09:43:59;;;;;;;0.80;0.30;;;;;;;12.95;100.00;99168.16;4928398;29;20928;-57
2023/03/24 09:47:15;;;;;;;0.30;0.20;;;;;;;12.80;100.00;99171.69;4907212;28;20461;-57
2023/03/24 09:49:43;;;;;;;0.60;0.60;;;;;;;12.92;100.00;99179.00;4924627;29;20559;-57
2023/03/24 09:52:13;;;;;;;0.40;0.30;;;;;;;12.91;100.00;99198.63;4928130;29;20464;-57
2023/03/24 09:54:57;;;;;;;0.50;0.37;;;;;;;12.90;100.00;99196.91;4930527;28;20484;-57
2023/03/24 09:57:36;;;;;;;2.50;1.27;;;;;;;12.99;100.00;99188.34;4929078;29;20460;-57
2023/03/24 10:00:20;;;;;;;0.40;0.30;;;;;;;12.87;100.00;99189.03;4923166;29;20537;-57
2023/03/24 10:02:48;;;;;;;0.60;0.50;;;;;;;13.03;100.00;99188.13;4907109;28;20839;-57
2023/03/24 10:05:26;;;;;;;0.50;0.40;;;;;;;13.06;100.00;99187.09;4929570;29;20514;-57
2023/03/24 10:08:03;;;;;;;0.37;0.27;;;;;;;13.21;100.00;99188.91;4921867;28;20510;-57
2023/03/24 10:10:41;;;;;;;0.30;0.20;;;;;;;13.62;100.00;99194.53;4931109;29;20487;-57
2023/03/24 10:13:27;;;;;;;0.30;0.20;;;;;;;13.81;100.00;99204.97;4926710;29;20452;-57
2023/03/24 10:16:05;;;;;;;0.60;0.53;;;;;;;13.95;100.00;99196.13;4917143;28;20509;-56
2023/03/24 10:19:05;;;;;;;0.60;0.40;;;;;;;14.19;100.00;99194.66;4930911;29;20456;-57
2023/03/24 10:21:35;;;;;;;0.70;0.40;;;;;;;14.60;100.00;99187.75;4931063;28;20475;-57
2023/03/24 10:24:13;;;;;;;0.40;0.30;;;;;;;14.84;100.00;99190.69;4930964;29;20479;-57
2023/03/24 10:26:45;;;;;;;0.40;0.30;;;;;;;14.78;100.00;99192.78;4931124;28;20467;-56
2023/03/24 10:29:33;;;;;;;0.40;0.30;;;;;;;14.77;100.00;99184.84;4930991;29;20476;-57
2023/03/24 10:32:19;;;;;;;0.50;0.40;;;;;;;14.93;100.00;99198.97;4909125;28;20522;-57
2023/03/24 10:34:51;;;;;;;1.27;0.50;;;;;;;14.45;99.73;99201.13;4930904;28;20503;-57
2023/03/24 10:37:17;;;;;;;4.23;0.80;;;;;;;14.49;100.00;99210.66;4919739;29;20460;-57
2023/03/24 10:39:44;;;;;;;0.70;0.50;;;;;;;14.46;99.13;99199.28;4929027;29;20930;-56
2023/03/24 10:42:32;;;;;;;0.53;0.53;;;;;;;14.33;98.90;99214.34;4931045;28;20468;-57
2023/03/24 10:45:00;;;;;;;0.60;0.33;;;;;;;14.44;99.72;99215.44;4909071;28;20460;-57
2023/03/24 10:47:29;;;;;;;5.57;1.23;;;;;;;14.37;99.55;99213.19;4930937;29;20456;-57
2023/03/24 10:50:04;;;;;;;4.57;2.20;;;;;;;14.62;99.40;99226.81;4930753;29;20973;-57
2023/03/24 10:52:47;;;;;;;1.27;0.50;;;;;;;14.98;99.71;99220.97;4930790;29;21094;-57
2023/03/24 10:55:17;;;;;;;1.27;0.40;;;;;;;14.77;98.66;99227.66;4930587;29;20459;-57
2023/03/24 10:57:48;;;;;;;0.50;0.30;;;;;;;14.98;99.18;99226.31;4930636;29;20526;-57
2023/03/24 11:00:18;;;;;;;1.33;0.53;;;;;;;14.86;97.63;99228.91;4930177;29;21035;-57
2023/03/24 11:02:55;;;;;;;0.77;0.50;;;;;;;14.77;97.84;99228.50;4930396;29;20957;-57
2023/03/24 11:05:29;;;;;;;0.60;0.30;;;;;;;14.95;96.04;99221.16;4929384;29;20971;-57
2023/03/24 11:08:11;;;;;;;0.57;0.50;;;;;;;14.98;95.00;99209.41;4930572;29;20483;-57
2023/03/24 11:10:38;;;;;;;1.97;0.70;;;;;;;14.97;95.03;99213.88;4951182;22;20975;-52
2023/03/24 11:13:15;;;;;;;0.80;0.40;;;;;;;14.84;92.81;99209.41;4945233;28;20983;-51
2023/03/24 11:16:10;;;;;;;1.17;0.37;;;;;;;15.02;92.43;99210.91;4942954;28;20462;-52
2023/03/24 11:18:52;;;;;;;0.53;0.50;;;;;;;15.26;92.76;99219.19;4937684;28;20494;-52
2023/03/24 11:21:19;;;;;;;0.63;0.40;;;;;;;15.27;92.03;99215.53;4937817;29;20500;-52
2023/03/24 11:23:45;;;;;;;0.40;0.30;;;;;;;15.37;89.92;99206.81;4944522;29;20467;-52
2023/03/24 11:26:27;;;;;;;3.57;0.57;;;;;;;15.23;88.79;99209.53;4943835;28;20944;-52
2023/03/24 11:28:57;;;;;;;3.30;0.40;;;;;;;15.23;90.14;99219.38;4941881;28;20483;-53
2023/03/24 11:31:29;;;;;;;0.40;0.30;;;;;;;15.56;89.89;99224.34;4943319;29;20473;-52
2023/03/24 11:34:18;;;;;;;2.80;0.60;;;;;;;15.75;87.20;99232.03;4939892;29;20448;-52
2023/03/24 11:36:49;;;;;;;0.37;0.27;;;;;;;15.76;87.06;99241.78;4936380;28;20480;-54
2023/03/24 11:39:22;;;;;;;2.40;0.70;;;;;;;16.04;85.22;99251.56;4936752;28;20452;-52
2023/03/24 11:42:02;;;;;;;0.90;0.63;;;;;;;15.88;82.86;99239.16;4941649;28;20476;-54
2023/03/24 11:44:37;;;;;;;0.70;0.67;;;;;;;15.88;81.78;99243.66;4944681;29;20451;-53
2023/03/24 11:47:10;;;;;;;3.50;0.43;;;;;;;15.92;80.47;99237.16;4938645;28;20538;-51
2023/03/24 11:49:43;;;;;;;0.40;0.30;;;;;;;16.29;81.71;99228.28;4942715;28;20452;-52